Terminal Aerodrome Forecast
Issued by NWS

Home | Current Version | Previous Version | Graphics & Text | Print | Product List | Glossary On
Versions: 1 2 3 4 5 6 7 8 9 10 11 12 13 14 15 16 17 18 19 20 21 22 23 24 25 26 27 28 29 30
000
FTUS43 KBIS 271730
TAFDIK
TAF
KDIK 271730Z 2718/2818 06014KT P6SM VCSH OVC025
     FM272200 06011G19KT P6SM OVC010
     FM280000 06011KT P6SM OVC008
     FM281200 08006KT P6SM OVC003
     FM281600 10006KT P6SM BKN008=

USA.gov is the U.S. government's official web portal to all federal, state and local government web resources and services.